createdAt,value
2024-04-06T00:00:00.327Z,97249.87
2024-04-06T00:02:32.161Z,97245.41
2024-04-06T00:05:04.958Z,97242.17
2024-04-06T00:07:38.757Z,97234.73
2024-04-06T00:10:11.690Z,97232.30
2024-04-06T00:12:44.845Z,97229.98
2024-04-06T00:15:19.130Z,97224.23
2024-04-06T00:17:51.017Z,97223.09
2024-04-06T00:20:23.852Z,97216.87
2024-04-06T00:22:57.318Z,97215.98
2024-04-06T00:25:30.017Z,97221.10
2024-04-06T00:28:01.877Z,97215.31
2024-04-06T00:30:33.818Z,97214.70
2024-04-06T00:33:06.233Z,97213.50
2024-04-06T00:35:38.308Z,97213.00
2024-04-06T00:38:19.888Z,97213.27
2024-04-06T00:41:12.060Z,97214.71
2024-04-06T00:43:44.317Z,97209.95
2024-04-06T00:46:19.072Z,97206.77
2024-04-06T00:48:52.478Z,97207.02
2024-04-06T00:51:24.214Z,97206.90
2024-04-06T00:53:56.273Z,97203.09
2024-04-06T00:56:28.369Z,97201.33
2024-04-06T00:59:00.230Z,97199.97
2024-04-06T01:01:32.461Z,97195.69
2024-04-06T01:04:04.733Z,97189.61
2024-04-06T01:06:36.546Z,97191.73
2024-04-06T01:09:09.090Z,97190.71
2024-04-06T01:11:41.040Z,97196.12
2024-04-06T01:14:13.368Z,97207.44
2024-04-06T01:16:45.267Z,97228.60
2024-04-06T01:19:17.252Z,97228.42
2024-04-06T01:21:49.520Z,97225.70
2024-04-06T01:24:29.313Z,97221.41
2024-04-06T01:27:02.812Z,97222.14
2024-04-06T01:29:34.837Z,97221.89
2024-04-06T01:32:07.382Z,97227.61
2024-04-06T01:34:39.388Z,97232.84
2024-04-06T01:37:11.448Z,97238.52
2024-04-06T01:39:43.683Z,97234.98
2024-04-06T01:42:15.637Z,97221.97
2024-04-06T01:44:48.118Z,97221.19
2024-04-06T01:47:19.816Z,97216.05
2024-04-06T01:49:52.096Z,97208.38
2024-04-06T01:52:25.357Z,97204.13
2024-04-06T01:54:57.151Z,97208.33
2024-04-06T01:57:29.215Z,97212.77
2024-04-06T02:00:01.747Z,97215.39
2024-04-06T02:02:45.368Z,97216.20
2024-04-06T02:05:18.760Z,97219.97
2024-04-06T02:07:50.924Z,97229.53
2024-04-06T02:10:23.113Z,97232.86
2024-04-06T02:12:56.071Z,97239.34
2024-04-06T02:15:27.991Z,97239.66
2024-04-06T02:17:59.929Z,97242.51
2024-04-06T02:20:32.284Z,97239.21
2024-04-06T02:23:06.057Z,97240.08
2024-04-06T02:25:37.896Z,97238.58
2024-04-06T02:28:10.340Z,97242.66
2024-04-06T02:30:42.350Z,97243.80
2024-04-06T02:33:14.748Z,97246.41
2024-04-06T02:35:46.803Z,97252.63
2024-04-06T02:38:18.886Z,97256.81
2024-04-06T02:40:52.693Z,97264.00
2024-04-06T02:43:24.401Z,97269.95
2024-04-06T02:45:56.451Z,97271.69
2024-04-06T02:48:28.283Z,97281.52
2024-04-06T02:51:00.084Z,97282.17
2024-04-06T02:53:31.828Z,97285.52
2024-04-06T02:56:03.778Z,97289.09
2024-04-06T02:58:36.072Z,97286.52
2024-04-06T03:01:08.158Z,97284.94
2024-04-06T03:03:40.174Z,97298.10
2024-04-06T03:06:12.131Z,97295.66
2024-04-06T03:08:44.687Z,97289.56
2024-04-06T03:11:16.726Z,97286.42
2024-04-06T03:13:49.039Z,97286.97
2024-04-06T03:16:21.611Z,97287.66
2024-04-06T03:18:53.626Z,97285.55
2024-04-06T03:21:27.129Z,97293.58
2024-04-06T03:23:57.013Z,97292.28
2024-04-06T03:26:29.151Z,97290.08
2024-04-06T03:29:00.889Z,97292.74
2024-04-06T03:31:33.317Z,97294.47
2024-04-06T03:34:05.739Z,97303.32
2024-04-06T03:36:38.223Z,97301.88
2024-04-06T03:39:09.834Z,97306.35
2024-04-06T03:41:42.787Z,97312.95
2024-04-06T03:44:15.525Z,97320.34
2024-04-06T03:46:47.527Z,97322.83
2024-04-06T03:49:19.596Z,97322.77
2024-04-06T03:51:51.360Z,97329.02
2024-04-06T03:54:23.773Z,97334.61
2024-04-06T03:56:56.025Z,97331.63
2024-04-06T03:59:27.761Z,97338.29
2024-04-06T04:02:00.004Z,97342.92
2024-04-06T04:04:32.028Z,97349.82
2024-04-06T04:07:04.700Z,97358.21
2024-04-06T04:09:38.892Z,97358.83
2024-04-06T04:12:11.618Z,97362.04
2024-04-06T04:14:43.484Z,97367.55
2024-04-06T04:17:15.667Z,97368.85
2024-04-06T04:19:48.791Z,97374.95
2024-04-06T04:22:20.743Z,97379.14
2024-04-06T04:24:53.036Z,97377.49
2024-04-06T04:27:24.739Z,97379.42
2024-04-06T04:29:56.982Z,97382.77
2024-04-06T04:32:29.033Z,97384.45
2024-04-06T04:35:01.104Z,97390.86
2024-04-06T04:37:33.101Z,97400.52
2024-04-06T04:40:05.574Z,97403.62
2024-04-06T04:42:37.631Z,97408.58
2024-04-06T04:45:13.905Z,97415.11
2024-04-06T04:47:46.143Z,97420.27
2024-04-06T04:50:19.727Z,97428.19
2024-04-06T04:52:53.833Z,97426.23
2024-04-06T04:55:26.184Z,97430.38
2024-04-06T04:57:58.181Z,97430.00
2024-04-06T05:00:30.437Z,97434.06
2024-04-06T05:03:04.185Z,97430.00
2024-04-06T05:05:36.195Z,97433.13
2024-04-06T05:08:09.578Z,97440.02
2024-04-06T05:10:41.326Z,97445.30
2024-04-06T05:13:14.047Z,97446.46
2024-04-06T05:15:51.102Z,97445.20
2024-04-06T05:18:23.235Z,97448.73
2024-04-06T05:20:56.327Z,97456.33
2024-04-06T05:23:29.186Z,97459.70
2024-04-06T05:26:01.566Z,97466.91
2024-04-06T05:28:33.319Z,97470.15
2024-04-06T05:31:05.149Z,97470.91
2024-04-06T05:33:36.961Z,97471.38
2024-04-06T05:36:09.845Z,97479.35
2024-04-06T05:38:41.890Z,97484.61
2024-04-06T05:41:15.287Z,97486.98
2024-04-06T05:43:45.382Z,97483.83
2024-04-06T05:46:17.287Z,97487.23
2024-04-06T05:48:49.308Z,97486.98
2024-04-06T05:51:21.743Z,97489.95
2024-04-06T05:53:53.779Z,97493.71
2024-04-06T05:56:25.838Z,97493.73
2024-04-06T05:58:58.360Z,97495.27
2024-04-06T06:01:30.911Z,97497.95
2024-04-06T06:04:02.698Z,97499.52
2024-04-06T06:06:34.708Z,97496.25
2024-04-06T06:09:08.097Z,97496.11
2024-04-06T06:11:39.915Z,97497.86
2024-04-06T06:14:11.644Z,97497.41
2024-04-06T06:16:44.374Z,97507.77
2024-04-06T06:19:17.067Z,97507.10
2024-04-06T06:21:50.295Z,97508.35
2024-04-06T06:24:22.206Z,97510.09
2024-04-06T06:26:58.684Z,97518.71
2024-04-06T06:29:33.585Z,97519.68
2024-04-06T06:32:07.836Z,97520.09
2024-04-06T06:34:40.430Z,97518.55
2024-04-06T06:42:24.012Z,97525.16
2024-04-06T06:44:55.922Z,97525.00
2024-04-06T06:47:27.818Z,97528.59
2024-04-06T06:49:59.886Z,97531.05
2024-04-06T06:52:31.785Z,97526.94
2024-04-06T06:55:03.989Z,97525.01
2024-04-06T06:57:35.679Z,97532.05
2024-04-06T07:02:44.943Z,97536.31
2024-04-06T07:05:17.679Z,97536.16
2024-04-06T07:07:57.290Z,97537.17
2024-04-06T07:10:29.377Z,97538.17
2024-04-06T07:13:01.293Z,97537.54
2024-04-06T07:15:33.141Z,97543.11
2024-04-06T07:18:05.272Z,97546.27
2024-04-06T07:20:37.096Z,97555.92
2024-04-06T07:23:09.042Z,97556.73
2024-04-06T07:25:42.922Z,97561.54
2024-04-06T07:28:15.911Z,97563.07
2024-04-06T07:30:49.015Z,97559.83
2024-04-06T07:33:21.669Z,97562.71
2024-04-06T07:36:14.879Z,97560.96
2024-04-06T07:41:32.739Z,97560.25
2024-04-06T07:44:04.627Z,97562.85
2024-04-06T07:46:36.465Z,97563.55
2024-04-06T07:49:07.918Z,97562.05
2024-04-06T07:51:40.543Z,97556.66
2024-04-06T07:54:13.879Z,97562.47
2024-04-06T07:56:44.114Z,97564.59
2024-04-06T07:59:17.390Z,97562.67
2024-04-06T08:01:47.321Z,97563.39
2024-04-06T08:04:19.801Z,97557.64
2024-04-06T08:06:52.987Z,97557.96
2024-04-06T08:09:31.929Z,97559.17
2024-04-06T08:12:09.688Z,97557.46
2024-04-06T08:14:41.553Z,97556.05
2024-04-06T08:17:36.671Z,97554.72
2024-04-06T08:20:35.733Z,97560.70
2024-04-06T08:23:13.731Z,97559.29
2024-04-06T08:25:46.413Z,97560.38
2024-04-06T08:28:50.864Z,97565.35
2024-04-06T08:32:01.840Z,97560.84
2024-04-06T08:35:07.471Z,97561.29
2024-04-06T08:38:12.713Z,97561.30
2024-04-06T08:41:13.901Z,97560.50
2024-04-06T08:43:57.353Z,97563.64
2024-04-06T08:46:30.452Z,97559.91
2024-04-06T08:49:39.866Z,97562.39
2024-04-06T08:52:13.209Z,97560.88
2024-04-06T08:54:45.366Z,97564.02
2024-04-06T08:57:17.650Z,97563.75
2024-04-06T08:59:49.758Z,97566.41
2024-04-06T09:02:24.708Z,97566.02
2024-04-06T09:04:58.746Z,97563.64
2024-04-06T09:07:31.305Z,97565.98
2024-04-06T09:10:29.145Z,97571.45
2024-04-06T09:13:17.521Z,97572.05
2024-04-06T09:16:03.849Z,97575.02
2024-04-06T09:18:56.008Z,97574.86
2024-04-06T09:21:27.924Z,97581.00
2024-04-06T09:24:00.095Z,97581.48
2024-04-06T09:26:34.884Z,97583.44
2024-04-06T09:29:07.048Z,97583.63
2024-04-06T09:31:53.016Z,97585.30
2024-04-06T09:34:25.805Z,97589.48
2024-04-06T09:37:04.739Z,97590.86
2024-04-06T09:39:37.457Z,97592.89
2024-04-06T09:42:11.585Z,97590.74
2024-04-06T09:44:44.292Z,97588.30
2024-04-06T09:47:30.691Z,97582.14
2024-04-06T09:50:13.626Z,97581.27
2024-04-06T09:52:56.800Z,97583.60
2024-04-06T09:55:42.620Z,97586.56
2024-04-06T09:58:26.668Z,97586.20
2024-04-06T10:00:59.435Z,97586.00
2024-04-06T10:03:39.206Z,97583.98
2024-04-06T10:06:17.180Z,97582.80
2024-04-06T10:08:53.075Z,97580.67
2024-04-06T10:11:26.254Z,97581.54
2024-04-06T10:13:59.609Z,97583.02
2024-04-06T10:16:32.506Z,97586.19
2024-04-06T10:19:18.873Z,97586.34
2024-04-06T10:21:50.707Z,97584.00
2024-04-06T10:24:35.659Z,97588.00
2024-04-06T10:27:16.315Z,97592.61
2024-04-06T10:29:47.879Z,97594.14
2024-04-06T10:32:19.932Z,97599.96
2024-04-06T10:35:02.724Z,97595.61
2024-04-06T10:37:37.873Z,97591.52
2024-04-06T10:40:12.297Z,97583.76
2024-04-06T10:42:44.753Z,97583.17
2024-04-06T10:45:47.243Z,97576.92
2024-04-06T10:48:26.207Z,97571.02
2024-04-06T10:50:59.464Z,97569.27
2024-04-06T10:53:33.905Z,97564.05
2024-04-06T10:56:06.993Z,97564.10
2024-04-06T10:58:36.788Z,97565.39
2024-04-06T11:01:15.877Z,97564.43
2024-04-06T11:03:49.199Z,97560.55
2024-04-06T11:06:20.804Z,97561.11
2024-04-06T11:08:52.693Z,97559.65
2024-04-06T11:11:24.499Z,97560.94
2024-04-06T11:14:00.406Z,97559.73
2024-04-06T11:16:34.399Z,97558.60
2024-04-06T11:19:06.186Z,97554.50
2024-04-06T11:21:37.966Z,97552.31
2024-04-06T11:24:10.053Z,97553.36
2024-04-06T11:26:41.426Z,97552.23
2024-04-06T11:29:14.645Z,97554.64
2024-04-06T11:31:46.487Z,97559.20
2024-04-06T11:34:18.327Z,97562.08
2024-04-06T11:36:50.092Z,97562.20
2024-04-06T11:39:22.047Z,97562.05
2024-04-06T11:41:53.677Z,97559.85
2024-04-06T11:44:24.855Z,97558.95
2024-04-06T11:47:10.496Z,97556.25
2024-04-06T11:49:42.240Z,97552.27
2024-04-06T11:52:14.419Z,97552.36
2024-04-06T11:54:46.457Z,97556.14
2024-04-06T11:57:18.151Z,97554.89
2024-04-06T11:59:49.745Z,97559.23
2024-04-06T12:02:21.563Z,97557.48
2024-04-06T12:04:53.059Z,97558.09
2024-04-06T12:07:24.447Z,97559.41
2024-04-06T12:09:56.397Z,97557.79
2024-04-06T12:12:27.947Z,97558.52
2024-04-06T12:14:59.567Z,97560.82
2024-04-06T12:17:32.153Z,97558.91
2024-04-06T12:20:17.233Z,97559.74
2024-04-06T12:22:48.850Z,97561.88
2024-04-06T12:25:20.502Z,97560.21
2024-04-06T12:27:52.687Z,97552.98
2024-04-06T12:30:24.328Z,97551.77
2024-04-06T12:32:55.349Z,97552.88
2024-04-06T12:35:27.157Z,97554.75
2024-04-06T12:37:59.415Z,97556.22
2024-04-06T12:40:30.778Z,97549.89
2024-04-06T12:43:02.075Z,97549.91
2024-04-06T12:45:33.889Z,97555.08
2024-04-06T12:48:06.618Z,97553.05
2024-04-06T12:50:38.406Z,97553.16
2024-04-06T12:53:10.181Z,97549.39
2024-04-06T12:55:41.527Z,97550.73
2024-04-06T12:58:13.364Z,97551.61
2024-04-06T13:00:45.328Z,97553.58
2024-04-06T13:03:17.134Z,97550.16
2024-04-06T13:05:50.313Z,97547.12
2024-04-06T13:08:22.996Z,97549.61
2024-04-06T13:10:56.011Z,97547.23
2024-04-06T13:13:27.894Z,97547.37
2024-04-06T13:16:00.043Z,97546.38
2024-04-06T13:18:32.182Z,97546.69
2024-04-06T13:21:04.492Z,97545.46
2024-04-06T13:23:49.715Z,97548.31
2024-04-06T13:26:21.374Z,97547.05
2024-04-06T13:28:53.341Z,97543.57
2024-04-06T13:31:25.187Z,97539.76
2024-04-06T13:33:57.024Z,97541.44
2024-04-06T13:36:28.864Z,97543.60
2024-04-06T13:39:01.914Z,97542.83
2024-04-06T13:41:35.124Z,97547.39
2024-04-06T13:44:07.509Z,97553.83
2024-04-06T13:46:39.546Z,97557.30
2024-04-06T13:49:24.510Z,97559.29
2024-04-06T13:51:56.846Z,97558.59
2024-04-06T13:54:28.038Z,97563.98
2024-04-06T13:56:59.810Z,97565.16
2024-04-06T13:59:31.111Z,97564.20
2024-04-06T14:02:02.440Z,97559.33
2024-04-06T14:04:34.704Z,97558.71
2024-04-06T14:07:06.742Z,97556.58
2024-04-06T14:09:37.927Z,97556.51
2024-04-06T14:12:10.267Z,97554.44
2024-04-06T14:14:41.887Z,97555.75
2024-04-06T14:17:13.430Z,97559.84
2024-04-06T14:19:44.930Z,97557.98
2024-04-06T14:22:17.651Z,97553.34
2024-04-06T14:24:50.298Z,97553.36
2024-04-06T14:27:21.973Z,97548.77
2024-04-06T14:29:58.766Z,97544.74
2024-04-06T14:32:30.534Z,97545.02
2024-04-06T14:35:02.283Z,97550.64
2024-04-06T14:37:33.552Z,97547.30
2024-04-06T14:40:05.704Z,97545.60
2024-04-06T14:42:38.786Z,97545.61
2024-04-06T14:45:09.698Z,97546.87
2024-04-06T14:47:55.145Z,97546.33
2024-04-06T14:50:26.682Z,97546.96
2024-04-06T14:52:58.418Z,97545.52
2024-04-06T14:55:30.279Z,97542.86
2024-04-06T14:58:01.900Z,97543.59
2024-04-06T15:00:33.888Z,97548.36
2024-04-06T15:03:05.643Z,97554.20
2024-04-06T15:05:37.387Z,97556.43
2024-04-06T15:08:09.739Z,97554.42
2024-04-06T15:10:42.123Z,97557.60
2024-04-06T15:13:17.128Z,97557.34
2024-04-06T15:15:50.288Z,97555.15
2024-04-06T15:18:22.109Z,97557.81
2024-04-06T15:20:55.352Z,97557.97
2024-04-06T15:23:26.575Z,97560.30
2024-04-06T15:25:58.427Z,97563.02
2024-04-06T15:28:30.216Z,97556.81
2024-04-06T15:31:02.231Z,97557.75
2024-04-06T15:33:33.766Z,97559.21
2024-04-06T15:36:05.382Z,97560.12
2024-04-06T15:38:38.743Z,97558.00
2024-04-06T15:41:10.389Z,97554.86
2024-04-06T15:43:43.088Z,97550.48
2024-04-06T15:46:14.533Z,97559.36
2024-04-06T15:48:46.078Z,97558.42
2024-04-06T15:51:17.869Z,97555.08
2024-04-06T15:53:49.679Z,97561.82
2024-04-06T15:56:21.399Z,97562.11
2024-04-06T15:58:53.027Z,97559.95
2024-04-06T16:01:25.050Z,97565.30
2024-04-06T16:03:56.835Z,97568.63
2024-04-06T16:06:30.129Z,97568.07
2024-04-06T16:09:01.916Z,97570.23
2024-04-06T16:11:47.084Z,97569.91
2024-04-06T16:14:19.021Z,97573.39
2024-04-06T16:16:50.638Z,97573.51
2024-04-06T16:19:22.782Z,97579.96
2024-04-06T16:21:54.668Z,97581.30
2024-04-06T16:24:27.719Z,97581.64
2024-04-06T16:26:59.537Z,97581.66
2024-04-06T16:29:31.463Z,97577.92
2024-04-06T16:32:03.379Z,97583.72
2024-04-06T16:34:36.549Z,97587.77
2024-04-06T16:37:08.216Z,97586.81
2024-04-06T16:39:39.992Z,97588.70
2024-04-06T16:42:12.265Z,97595.23
2024-04-06T16:44:44.720Z,97600.05
2024-04-06T16:47:16.688Z,97596.66
2024-04-06T16:49:48.292Z,97596.46
2024-04-06T16:52:19.763Z,97597.87
2024-04-06T16:54:51.753Z,97602.43
2024-04-06T16:57:22.948Z,97601.39
2024-04-06T16:59:56.070Z,97602.33
2024-04-06T17:02:27.654Z,97603.68
2024-04-06T17:04:59.315Z,97605.79
2024-04-06T17:07:32.647Z,97604.91
2024-04-06T17:10:06.355Z,97607.56
2024-04-06T17:12:38.398Z,97612.38
2024-04-06T17:15:10.975Z,97615.02
2024-04-06T17:17:42.295Z,97622.16
2024-04-06T17:20:22.358Z,97628.70
2024-04-06T17:22:55.025Z,97634.16
2024-04-06T17:25:27.371Z,97635.38
2024-04-06T17:28:00.637Z,97635.96
2024-04-06T17:30:32.996Z,97635.42
2024-04-06T17:33:04.627Z,97636.77
2024-04-06T17:35:37.334Z,97636.61
2024-04-06T17:38:09.961Z,97636.70
2024-04-06T17:41:05.819Z,97640.80
2024-04-06T17:43:38.600Z,97645.54
2024-04-06T17:46:11.682Z,97650.50
2024-04-06T17:48:47.961Z,97649.01
2024-04-06T17:51:20.790Z,97653.29
2024-04-06T17:53:52.672Z,97658.20
2024-04-06T17:56:27.239Z,97659.47
2024-04-06T17:59:03.378Z,97666.20
2024-04-06T18:01:36.115Z,97668.70
2024-04-06T18:04:08.507Z,97668.92
2024-04-06T18:06:41.560Z,97673.39
2024-04-06T18:09:16.296Z,97672.36
2024-04-06T18:12:02.531Z,97675.59
2024-04-06T18:14:35.427Z,97678.90
2024-04-06T18:17:10.798Z,97676.81
2024-04-06T18:19:43.777Z,97675.98
2024-04-06T18:22:16.387Z,97674.27
2024-04-06T18:24:48.375Z,97676.77
2024-04-06T18:27:21.175Z,97681.61
2024-04-06T18:29:58.106Z,97682.03
2024-04-06T18:32:44.503Z,97682.52
2024-04-06T18:35:17.975Z,97680.52
2024-04-06T18:37:49.974Z,97679.02
2024-04-06T18:40:21.896Z,97678.67
2024-04-06T18:42:54.142Z,97678.91
2024-04-06T18:45:25.438Z,97675.60
2024-04-06T18:47:58.464Z,97673.17
2024-04-06T18:50:31.848Z,97674.44
2024-04-06T18:53:03.100Z,97682.26
2024-04-06T18:55:34.651Z,97680.16
2024-04-06T18:58:06.778Z,97685.67
2024-04-06T19:00:38.989Z,97694.16
2024-04-06T19:03:10.912Z,97698.86
2024-04-06T19:05:43.449Z,97701.34
2024-04-06T19:08:29.039Z,97706.73
2024-04-06T19:11:00.741Z,97704.97
2024-04-06T19:13:32.332Z,97704.70
2024-04-06T19:16:17.268Z,97707.45
2024-04-06T19:18:48.894Z,97705.65
2024-04-06T19:21:20.830Z,97705.48
2024-04-06T19:23:51.938Z,97705.09
2024-04-06T19:26:27.047Z,97707.26
2024-04-06T19:29:05.178Z,97706.33
2024-04-06T19:31:39.389Z,97700.46
2024-04-06T19:34:12.318Z,97702.83
2024-04-06T19:36:58.088Z,97704.50
2024-04-06T19:39:31.018Z,97704.11
2024-04-06T19:42:03.238Z,97706.00
2024-04-06T19:44:34.173Z,97706.91
2024-04-06T19:47:06.278Z,97704.67
2024-04-06T19:49:38.139Z,97701.86
2024-04-06T19:52:10.184Z,97705.84
2024-04-06T19:54:41.312Z,97706.21
2024-04-06T19:57:12.568Z,97703.08
2024-04-06T19:59:44.589Z,97707.79
2024-04-06T20:02:16.406Z,97709.89
2024-04-06T20:04:48.172Z,97712.91
2024-04-06T20:07:19.898Z,97719.06
2024-04-06T20:09:51.710Z,97722.77
2024-04-06T20:12:23.360Z,97725.44
2024-04-06T20:14:54.969Z,97727.80
2024-04-06T20:17:27.365Z,97730.54
2024-04-06T20:19:59.031Z,97736.67
2024-04-06T20:22:48.410Z,97743.08
2024-04-06T20:25:38.538Z,97741.29
2024-04-06T20:28:23.244Z,97741.05
2024-04-06T20:30:57.993Z,97744.08
2024-04-06T20:33:31.000Z,97744.20
2024-04-06T20:36:02.153Z,97739.42
2024-04-06T20:38:34.377Z,97740.42
2024-04-06T20:41:05.531Z,97735.08
2024-04-06T20:43:50.461Z,97741.58
2024-04-06T20:46:22.032Z,97746.38
2024-04-06T20:48:53.528Z,97749.02
2024-04-06T20:51:26.161Z,97756.11
2024-04-06T20:53:58.071Z,97755.41
2024-04-06T20:56:30.922Z,97755.44
2024-04-06T20:59:04.329Z,97753.90
2024-04-06T21:01:36.465Z,97753.38
2024-04-06T21:04:08.281Z,97751.98
2024-04-06T21:06:40.292Z,97748.70
2024-04-06T21:09:11.614Z,97750.02
2024-04-06T21:11:43.203Z,97752.29
2024-04-06T21:14:15.750Z,97752.42
2024-04-06T21:16:47.386Z,97744.58
2024-04-06T21:19:18.906Z,97740.58
2024-04-06T21:21:50.263Z,97739.34
2024-04-06T21:24:21.346Z,97733.66
2024-04-06T21:26:52.490Z,97735.67
2024-04-06T21:29:23.263Z,97734.13
2024-04-06T21:32:07.879Z,97728.52
2024-04-06T21:34:38.817Z,97734.73
2024-04-06T21:37:10.218Z,97735.32
2024-04-06T21:39:41.736Z,97735.05
2024-04-06T21:42:13.420Z,97726.77
2024-04-06T21:44:44.547Z,97719.45
2024-04-06T21:47:15.484Z,97722.28
2024-04-06T21:49:47.553Z,97719.04
2024-04-06T21:52:19.370Z,97724.10
2024-04-06T21:54:51.045Z,97724.52
2024-04-06T21:57:22.265Z,97726.04
2024-04-06T21:59:54.623Z,97723.28
2024-04-06T22:02:37.064Z,97724.91
2024-04-06T22:05:09.046Z,97724.80
2024-04-06T22:07:40.766Z,97732.92
2024-04-06T22:10:25.511Z,97739.23
2024-04-06T22:12:57.149Z,97740.80
2024-04-06T22:15:28.252Z,97740.02
2024-04-06T22:18:00.567Z,97746.27
2024-04-06T22:20:32.011Z,97748.98
2024-04-06T22:23:03.615Z,97751.23
2024-04-06T22:25:35.172Z,97755.77
2024-04-06T22:28:07.307Z,97752.68
2024-04-06T22:30:38.516Z,97748.79
2024-04-06T22:33:09.891Z,97748.30
2024-04-06T22:35:41.263Z,97745.91
2024-04-06T22:38:12.438Z,97743.89
2024-04-06T22:40:45.113Z,97743.54
2024-04-06T22:43:16.715Z,97750.43
2024-04-06T22:45:48.219Z,97755.59
2024-04-06T22:48:19.794Z,97755.03
2024-04-06T22:50:51.475Z,97755.91
2024-04-06T22:53:23.241Z,97757.98
2024-04-06T22:55:54.989Z,97762.25
2024-04-06T22:58:25.929Z,97764.30
2024-04-06T23:00:57.577Z,97763.30
2024-04-06T23:03:28.678Z,97762.73
2024-04-06T23:05:59.910Z,97761.03
2024-04-06T23:08:44.481Z,97759.84
2024-04-06T23:11:16.202Z,97762.64
2024-04-06T23:13:47.370Z,97770.33
2024-04-06T23:16:19.284Z,97770.42
2024-04-06T23:18:50.828Z,97773.89
2024-04-06T23:21:22.575Z,97775.30
2024-04-06T23:23:54.270Z,97774.63
2024-04-06T23:26:39.636Z,97775.34
2024-04-06T23:29:10.991Z,97773.50
2024-04-06T23:31:42.107Z,97775.33
2024-04-06T23:34:13.475Z,97771.78
2024-04-06T23:36:44.818Z,97773.29
2024-04-06T23:39:16.057Z,97773.31
2024-04-06T23:41:47.028Z,97773.49
2024-04-06T23:44:18.735Z,97776.17
2024-04-06T23:46:50.577Z,97773.43
2024-04-06T23:49:21.779Z,97772.96
2024-04-06T23:51:54.301Z,97770.92
2024-04-06T23:54:25.541Z,97775.62
2024-04-06T23:56:57.656Z,97772.91
2024-04-06T23:59:29.388Z,97778.99
